sensor_id;sensor_type;location;lat;lon;timestamp;temperature;humidity
6407;DHT22;3236;51.022;6.818;2023-02-26T00:00:11;0.10;99.90
6407;DHT22;3236;51.022;6.818;2023-02-26T00:02:42;0.10;99.90
6407;DHT22;3236;51.022;6.818;2023-02-26T00:05:13;0.10;99.90
6407;DHT22;3236;51.022;6.818;2023-02-26T00:07:41;0.20;99.90
6407;DHT22;3236;51.022;6.818;2023-02-26T00:10:12;0.20;99.90
6407;DHT22;3236;51.022;6.818;2023-02-26T00:12:41;0.10;99.90
6407;DHT22;3236;51.022;6.818;2023-02-26T00:15:14;0.40;99.90
6407;DHT22;3236;51.022;6.818;2023-02-26T00:17:47;0.40;99.90
6407;DHT22;3236;51.022;6.818;2023-02-26T00:20:16;0.60;99.90
6407;DHT22;3236;51.022;6.818;2023-02-26T00:25:12;0.80;99.90
6407;DHT22;3236;51.022;6.818;2023-02-26T00:27:39;0.70;99.90
6407;DHT22;3236;51.022;6.818;2023-02-26T00:30:08;0.80;99.90
6407;DHT22;3236;51.022;6.818;2023-02-26T00:32:36;0.50;99.90
6407;DHT22;3236;51.022;6.818;2023-02-26T00:35:06;0.80;99.90
6407;DHT22;3236;51.022;6.818;2023-02-26T00:37:59;0.80;99.90
6407;DHT22;3236;51.022;6.818;2023-02-26T00:40:41;0.90;99.90
6407;DHT22;3236;51.022;6.818;2023-02-26T00:43:15;0.90;99.90
6407;DHT22;3236;51.022;6.818;2023-02-26T00:45:54;0.90;99.90
6407;DHT22;3236;51.022;6.818;2023-02-26T00:51:18;1.00;99.90
6407;DHT22;3236;51.022;6.818;2023-02-26T00:53:51;1.00;99.90
6407;DHT22;3236;51.022;6.818;2023-02-26T00:56:25;1.00;99.90
6407;DHT22;3236;51.022;6.818;2023-02-26T01:01:20;1.20;99.90
6407;DHT22;3236;51.022;6.818;2023-02-26T01:03:47;1.00;99.90
6407;DHT22;3236;51.022;6.818;2023-02-26T01:06:26;1.00;99.90
6407;DHT22;3236;51.022;6.818;2023-02-26T01:09:00;1.00;99.90
6407;DHT22;3236;51.022;6.818;2023-02-26T01:11:30;1.00;99.90
6407;DHT22;3236;51.022;6.818;2023-02-26T01:13:58;0.90;99.90
6407;DHT22;3236;51.022;6.818;2023-02-26T01:16:28;0.90;99.90
6407;DHT22;3236;51.022;6.818;2023-02-26T01:19:00;1.10;99.90
6407;DHT22;3236;51.022;6.818;2023-02-26T01:21:32;0.60;99.90
6407;DHT22;3236;51.022;6.818;2023-02-26T01:24:04;0.50;99.90
6407;DHT22;3236;51.022;6.818;2023-02-26T01:26:33;0.40;99.90
6407;DHT22;3236;51.022;6.818;2023-02-26T01:29:01;0.20;99.90
6407;DHT22;3236;51.022;6.818;2023-02-26T01:31:38;0.30;99.90
6407;DHT22;3236;51.022;6.818;2023-02-26T01:34:14;0.30;99.90
6407;DHT22;3236;51.022;6.818;2023-02-26T01:36:50;0.00;99.90
6407;DHT22;3236;51.022;6.818;2023-02-26T01:39:25;0.10;99.90
6407;DHT22;3236;51.022;6.818;2023-02-26T01:41:57;0.10;99.90
6407;DHT22;3236;51.022;6.818;2023-02-26T01:44:29;0.10;99.90
6407;DHT22;3236;51.022;6.818;2023-02-26T01:49:32;0.30;99.90
6407;DHT22;3236;51.022;6.818;2023-02-26T01:52:00;0.20;99.90
6407;DHT22;3236;51.022;6.818;2023-02-26T01:54:29;0.40;99.90
6407;DHT22;3236;51.022;6.818;2023-02-26T01:57:01;0.60;99.90
6407;DHT22;3236;51.022;6.818;2023-02-26T01:59:31;0.60;99.90
6407;DHT22;3236;51.022;6.818;2023-02-26T02:04:26;0.80;99.90
6407;DHT22;3236;51.022;6.818;2023-02-26T02:06:53;1.30;99.90
6407;DHT22;3236;51.022;6.818;2023-02-26T02:09:21;0.80;99.90
6407;DHT22;3236;51.022;6.818;2023-02-26T02:12:01;0.90;99.90
6407;DHT22;3236;51.022;6.818;2023-02-26T02:14:42;0.60;99.90
6407;DHT22;3236;51.022;6.818;2023-02-26T02:17:16;0.80;99.90
6407;DHT22;3236;51.022;6.818;2023-02-26T02:23:03;0.60;99.90
6407;DHT22;3236;51.022;6.818;2023-02-26T02:29:07;0.30;99.90
6407;DHT22;3236;51.022;6.818;2023-02-26T02:31:44;0.30;99.90
6407;DHT22;3236;51.022;6.818;2023-02-26T02:34:17;0.00;99.90
6407;DHT22;3236;51.022;6.818;2023-02-26T02:36:50;-0.80;99.90
6407;DHT22;3236;51.022;6.818;2023-02-26T02:39:20;-0.20;99.90
6407;DHT22;3236;51.022;6.818;2023-02-26T02:41:51;-0.30;99.90
6407;DHT22;3236;51.022;6.818;2023-02-26T02:44:22;-0.40;99.90
6407;DHT22;3236;51.022;6.818;2023-02-26T02:46:53;-0.40;99.90
6407;DHT22;3236;51.022;6.818;2023-02-26T02:49:24;-0.40;99.90
6407;DHT22;3236;51.022;6.818;2023-02-26T02:51:54;-0.40;99.90
6407;DHT22;3236;51.022;6.818;2023-02-26T02:54:26;-0.30;99.90
6407;DHT22;3236;51.022;6.818;2023-02-26T02:56:57;-0.20;99.90
6407;DHT22;3236;51.022;6.818;2023-02-26T02:59:31;-0.50;99.90
6407;DHT22;3236;51.022;6.818;2023-02-26T03:02:06;-0.50;99.90
6407;DHT22;3236;51.022;6.818;2023-02-26T03:04:34;-0.60;99.90
6407;DHT22;3236;51.022;6.818;2023-02-26T03:07:06;0.00;99.90
6407;DHT22;3236;51.022;6.818;2023-02-26T03:09:33;0.00;99.90
6407;DHT22;3236;51.022;6.818;2023-02-26T03:12:00;-0.20;99.90
6407;DHT22;3236;51.022;6.818;2023-02-26T03:14:28;-0.20;99.90
6407;DHT22;3236;51.022;6.818;2023-02-26T03:17:15;-0.20;99.90
6407;DHT22;3236;51.022;6.818;2023-02-26T03:23:13;-0.30;99.90
6407;DHT22;3236;51.022;6.818;2023-02-26T03:25:47;-0.10;99.90
6407;DHT22;3236;51.022;6.818;2023-02-26T03:28:21;-0.50;99.90
6407;DHT22;3236;51.022;6.818;2023-02-26T03:30:55;-0.60;99.90
6407;DHT22;3236;51.022;6.818;2023-02-26T03:33:40;-0.50;99.90
6407;DHT22;3236;51.022;6.818;2023-02-26T03:36:16;-0.50;99.90
6407;DHT22;3236;51.022;6.818;2023-02-26T03:38:55;-0.50;99.90
6407;DHT22;3236;51.022;6.818;2023-02-26T03:41:28;-0.60;99.90
6407;DHT22;3236;51.022;6.818;2023-02-26T03:43:59;-0.50;99.90
6407;DHT22;3236;51.022;6.818;2023-02-26T03:46:29;-0.60;99.90
6407;DHT22;3236;51.022;6.818;2023-02-26T03:49:02;-0.60;99.90
6407;DHT22;3236;51.022;6.818;2023-02-26T03:51:30;-0.40;99.90
6407;DHT22;3236;51.022;6.818;2023-02-26T03:54:03;-0.70;99.90
6407;DHT22;3236;51.022;6.818;2023-02-26T03:56:35;-0.50;99.90
6407;DHT22;3236;51.022;6.818;2023-02-26T03:59:05;-0.30;99.90
6407;DHT22;3236;51.022;6.818;2023-02-26T04:01:34;-0.30;99.90
6407;DHT22;3236;51.022;6.818;2023-02-26T04:04:08;-0.10;99.90
6407;DHT22;3236;51.022;6.818;2023-02-26T04:06:36;-0.20;99.90
6407;DHT22;3236;51.022;6.818;2023-02-26T04:09:04;-0.10;99.90
6407;DHT22;3236;51.022;6.818;2023-02-26T04:11:32;-0.10;99.90
6407;DHT22;3236;51.022;6.818;2023-02-26T04:14:01;0.00;99.90
6407;DHT22;3236;51.022;6.818;2023-02-26T04:16:31;-0.10;99.90
6407;DHT22;3236;51.022;6.818;2023-02-26T04:18:58;-0.20;99.90
6407;DHT22;3236;51.022;6.818;2023-02-26T04:21:35;-0.40;99.90
6407;DHT22;3236;51.022;6.818;2023-02-26T04:24:03;-0.30;99.90
6407;DHT22;3236;51.022;6.818;2023-02-26T04:26:30;-0.40;99.90
6407;DHT22;3236;51.022;6.818;2023-02-26T04:28:57;-0.60;99.90
6407;DHT22;3236;51.022;6.818;2023-02-26T04:31:24;-0.60;99.90
6407;DHT22;3236;51.022;6.818;2023-02-26T04:33:51;-1.10;99.90
6407;DHT22;3236;51.022;6.818;2023-02-26T04:36:24;-0.40;99.90
6407;DHT22;3236;51.022;6.818;2023-02-26T04:38:52;-1.00;99.90
6407;DHT22;3236;51.022;6.818;2023-02-26T04:41:22;-0.90;99.90
6407;DHT22;3236;51.022;6.818;2023-02-26T04:43:49;-0.80;99.90
6407;DHT22;3236;51.022;6.818;2023-02-26T04:46:16;-0.60;99.90
6407;DHT22;3236;51.022;6.818;2023-02-26T04:48:43;-0.70;99.90
6407;DHT22;3236;51.022;6.818;2023-02-26T04:51:10;-0.60;99.90
6407;DHT22;3236;51.022;6.818;2023-02-26T04:53:37;-0.80;99.90
6407;DHT22;3236;51.022;6.818;2023-02-26T04:58:33;-0.80;99.90
6407;DHT22;3236;51.022;6.818;2023-02-26T05:01:00;-0.70;99.90
6407;DHT22;3236;51.022;6.818;2023-02-26T05:03:27;-1.00;99.90
6407;DHT22;3236;51.022;6.818;2023-02-26T05:05:54;-1.00;99.90
6407;DHT22;3236;51.022;6.818;2023-02-26T05:08:24;-1.10;99.90
6407;DHT22;3236;51.022;6.818;2023-02-26T05:10:51;-0.90;99.90
6407;DHT22;3236;51.022;6.818;2023-02-26T05:13:22;-0.90;99.90
6407;DHT22;3236;51.022;6.818;2023-02-26T05:15:52;-0.90;99.90
6407;DHT22;3236;51.022;6.818;2023-02-26T05:18:21;-0.90;99.90
6407;DHT22;3236;51.022;6.818;2023-02-26T05:20:51;-1.20;99.90
6407;DHT22;3236;51.022;6.818;2023-02-26T05:23:19;-1.20;99.90
6407;DHT22;3236;51.022;6.818;2023-02-26T05:25:46;-0.90;99.90
6407;DHT22;3236;51.022;6.818;2023-02-26T05:28:13;-0.90;99.90
6407;DHT22;3236;51.022;6.818;2023-02-26T05:30:42;-0.70;99.90
6407;DHT22;3236;51.022;6.818;2023-02-26T05:33:09;-0.80;99.90
6407;DHT22;3236;51.022;6.818;2023-02-26T05:35:39;-0.60;99.90
6407;DHT22;3236;51.022;6.818;2023-02-26T05:38:06;-0.80;99.90
6407;DHT22;3236;51.022;6.818;2023-02-26T05:40:34;-0.80;99.90
6407;DHT22;3236;51.022;6.818;2023-02-26T05:43:01;-0.90;99.90
6407;DHT22;3236;51.022;6.818;2023-02-26T05:48:00;-1.30;99.90
6407;DHT22;3236;51.022;6.818;2023-02-26T05:50:27;-1.00;99.90
6407;DHT22;3236;51.022;6.818;2023-02-26T05:52:55;-1.00;99.90
6407;DHT22;3236;51.022;6.818;2023-02-26T05:55:22;-0.80;99.90
6407;DHT22;3236;51.022;6.818;2023-02-26T05:57:53;-1.00;99.90
6407;DHT22;3236;51.022;6.818;2023-02-26T06:00:20;-0.90;99.90
6407;DHT22;3236;51.022;6.818;2023-02-26T06:02:48;-0.90;99.90
6407;DHT22;3236;51.022;6.818;2023-02-26T06:05:16;-0.80;99.90
6407;DHT22;3236;51.022;6.818;2023-02-26T06:07:43;-0.70;99.90
6407;DHT22;3236;51.022;6.818;2023-02-26T06:10:11;-0.70;99.90
6407;DHT22;3236;51.022;6.818;2023-02-26T06:12:38;-0.70;99.90
6407;DHT22;3236;51.022;6.818;2023-02-26T06:15:07;-0.80;99.90
6407;DHT22;3236;51.022;6.818;2023-02-26T06:17:35;-0.60;99.90
6407;DHT22;3236;51.022;6.818;2023-02-26T06:20:02;-0.80;99.90
6407;DHT22;3236;51.022;6.818;2023-02-26T06:22:31;-0.80;99.90
6407;DHT22;3236;51.022;6.818;2023-02-26T06:24:58;-0.80;99.90
6407;DHT22;3236;51.022;6.818;2023-02-26T06:27:25;-0.80;99.90
6407;DHT22;3236;51.022;6.818;2023-02-26T06:29:52;-0.70;99.90
6407;DHT22;3236;51.022;6.818;2023-02-26T06:32:19;-0.80;99.90
6407;DHT22;3236;51.022;6.818;2023-02-26T06:34:46;-0.80;99.90
6407;DHT22;3236;51.022;6.818;2023-02-26T06:37:13;-1.00;99.90
6407;DHT22;3236;51.022;6.818;2023-02-26T06:39:42;-0.90;99.90
6407;DHT22;3236;51.022;6.818;2023-02-26T06:42:12;-1.20;99.90
6407;DHT22;3236;51.022;6.818;2023-02-26T06:44:39;-1.20;99.90
6407;DHT22;3236;51.022;6.818;2023-02-26T06:47:06;-0.80;99.90
6407;DHT22;3236;51.022;6.818;2023-02-26T06:49:33;-0.80;99.90
6407;DHT22;3236;51.022;6.818;2023-02-26T06:54:27;-0.80;99.90
6407;DHT22;3236;51.022;6.818;2023-02-26T06:56:56;-0.70;99.90
6407;DHT22;3236;51.022;6.818;2023-02-26T06:59:23;-0.60;99.90
6407;DHT22;3236;51.022;6.818;2023-02-26T07:01:50;-0.40;99.90
6407;DHT22;3236;51.022;6.818;2023-02-26T07:04:20;-0.40;99.90
6407;DHT22;3236;51.022;6.818;2023-02-26T07:06:47;-0.30;99.90
6407;DHT22;3236;51.022;6.818;2023-02-26T07:09:14;-0.40;99.90
6407;DHT22;3236;51.022;6.818;2023-02-26T07:11:41;-0.50;99.90
6407;DHT22;3236;51.022;6.818;2023-02-26T07:14:10;-0.40;99.90
6407;DHT22;3236;51.022;6.818;2023-02-26T07:19:04;-0.50;99.90
6407;DHT22;3236;51.022;6.818;2023-02-26T07:29:07;0.10;99.90
6407;DHT22;3236;51.022;6.818;2023-02-26T07:31:39;-0.10;99.90
6407;DHT22;3236;51.022;6.818;2023-02-26T07:34:06;-0.10;99.90
6407;DHT22;3236;51.022;6.818;2023-02-26T07:36:33;0.00;99.90
6407;DHT22;3236;51.022;6.818;2023-02-26T07:41:27;0.20;99.90
6407;DHT22;3236;51.022;6.818;2023-02-26T07:43:54;-0.10;99.90
6407;DHT22;3236;51.022;6.818;2023-02-26T07:46:21;0.40;99.90
6407;DHT22;3236;51.022;6.818;2023-02-26T07:51:17;0.30;99.90
6407;DHT22;3236;51.022;6.818;2023-02-26T07:53:44;0.20;99.90
6407;DHT22;3236;51.022;6.818;2023-02-26T07:56:11;0.50;99.90
6407;DHT22;3236;51.022;6.818;2023-02-26T08:01:05;0.50;99.90
6407;DHT22;3236;51.022;6.818;2023-02-26T08:03:33;0.40;99.90
6407;DHT22;3236;51.022;6.818;2023-02-26T08:08:30;0.70;99.90
6407;DHT22;3236;51.022;6.818;2023-02-26T08:10:58;0.80;99.90
6407;DHT22;3236;51.022;6.818;2023-02-26T08:13:25;0.60;99.90
6407;DHT22;3236;51.022;6.818;2023-02-26T08:15:52;0.50;99.90
6407;DHT22;3236;51.022;6.818;2023-02-26T08:20:49;0.50;99.90
6407;DHT22;3236;51.022;6.818;2023-02-26T08:23:19;0.60;99.90
6407;DHT22;3236;51.022;6.818;2023-02-26T08:25:46;0.90;99.90
6407;DHT22;3236;51.022;6.818;2023-02-26T08:33:08;1.20;99.90
6407;DHT22;3236;51.022;6.818;2023-02-26T08:35:35;0.80;99.90
6407;DHT22;3236;51.022;6.818;2023-02-26T08:38:03;1.20;99.90
6407;DHT22;3236;51.022;6.818;2023-02-26T08:40:31;1.10;99.90
6407;DHT22;3236;51.022;6.818;2023-02-26T08:43:07;1.40;99.90
6407;DHT22;3236;51.022;6.818;2023-02-26T08:45:36;1.30;99.90
6407;DHT22;3236;51.022;6.818;2023-02-26T08:48:03;1.40;99.90
6407;DHT22;3236;51.022;6.818;2023-02-26T08:50:30;1.20;99.90
6407;DHT22;3236;51.022;6.818;2023-02-26T08:52:57;1.60;99.90
6407;DHT22;3236;51.022;6.818;2023-02-26T08:55:24;1.20;99.90
6407;DHT22;3236;51.022;6.818;2023-02-26T09:02:53;1.60;99.90
6407;DHT22;3236;51.022;6.818;2023-02-26T09:05:20;1.70;99.90
6407;DHT22;3236;51.022;6.818;2023-02-26T09:07:48;1.70;99.90
6407;DHT22;3236;51.022;6.818;2023-02-26T09:12:42;2.10;99.90
6407;DHT22;3236;51.022;6.818;2023-02-26T09:20:07;2.10;99.90
6407;DHT22;3236;51.022;6.818;2023-02-26T09:25:06;1.90;99.90
6407;DHT22;3236;51.022;6.818;2023-02-26T09:27:40;2.10;99.90
6407;DHT22;3236;51.022;6.818;2023-02-26T09:30:15;2.50;99.90
6407;DHT22;3236;51.022;6.818;2023-02-26T09:32:45;2.40;99.90
6407;DHT22;3236;51.022;6.818;2023-02-26T09:35:12;2.50;99.90
6407;DHT22;3236;51.022;6.818;2023-02-26T09:37:39;2.60;99.90
6407;DHT22;3236;51.022;6.818;2023-02-26T09:40:09;2.50;99.90
6407;DHT22;3236;51.022;6.818;2023-02-26T09:42:51;2.40;99.90
6407;DHT22;3236;51.022;6.818;2023-02-26T09:45:29;2.60;99.90
6407;DHT22;3236;51.022;6.818;2023-02-26T09:47:57;2.70;99.90
6407;DHT22;3236;51.022;6.818;2023-02-26T09:50:31;3.00;99.90
6407;DHT22;3236;51.022;6.818;2023-02-26T09:53:09;2.90;99.90
6407;DHT22;3236;51.022;6.818;2023-02-26T09:55:40;3.10;99.90
6407;DHT22;3236;51.022;6.818;2023-02-26T09:58:14;3.30;99.90
6407;DHT22;3236;51.022;6.818;2023-02-26T10:00:50;3.60;99.90
6407;DHT22;3236;51.022;6.818;2023-02-26T10:03:26;3.50;99.90
6407;DHT22;3236;51.022;6.818;2023-02-26T10:06:11;3.60;99.90
6407;DHT22;3236;51.022;6.818;2023-02-26T10:08:49;3.70;99.90
6407;DHT22;3236;51.022;6.818;2023-02-26T10:13:52;4.00;99.90
6407;DHT22;3236;51.022;6.818;2023-02-26T10:16:25;4.10;99.90
6407;DHT22;3236;51.022;6.818;2023-02-26T10:21:27;3.90;99.90
6407;DHT22;3236;51.022;6.818;2023-02-26T10:24:02;3.90;99.90
6407;DHT22;3236;51.022;6.818;2023-02-26T10:26:40;3.90;99.90
6407;DHT22;3236;51.022;6.818;2023-02-26T10:29:15;3.90;99.90
6407;DHT22;3236;51.022;6.818;2023-02-26T10:31:56;3.90;99.90
6407;DHT22;3236;51.022;6.818;2023-02-26T10:34:29;3.90;99.90
6407;DHT22;3236;51.022;6.818;2023-02-26T10:37:02;3.90;99.90
6407;DHT22;3236;51.022;6.818;2023-02-26T10:39:34;4.10;99.90
6407;DHT22;3236;51.022;6.818;2023-02-26T10:42:06;4.30;99.90
6407;DHT22;3236;51.022;6.818;2023-02-26T10:44:41;4.70;99.90
6407;DHT22;3236;51.022;6.818;2023-02-26T10:47:19;4.60;99.90
6407;DHT22;3236;51.022;6.818;2023-02-26T10:49:52;4.50;99.90
6407;DHT22;3236;51.022;6.818;2023-02-26T10:52:24;4.50;99.90
6407;DHT22;3236;51.022;6.818;2023-02-26T10:55:09;4.40;99.90
6407;DHT22;3236;51.022;6.818;2023-02-26T10:57:45;4.30;99.90
6407;DHT22;3236;51.022;6.818;2023-02-26T11:00:16;4.10;99.90
6407;DHT22;3236;51.022;6.818;2023-02-26T11:02:47;4.20;99.90
6407;DHT22;3236;51.022;6.818;2023-02-26T11:05:18;4.50;99.90
6407;DHT22;3236;51.022;6.818;2023-02-26T11:07:48;4.30;99.90
6407;DHT22;3236;51.022;6.818;2023-02-26T11:10:40;3.90;99.90
6407;DHT22;3236;51.022;6.818;2023-02-26T11:13:08;4.00;99.90
6407;DHT22;3236;51.022;6.818;2023-02-26T11:15:35;3.60;99.90
6407;DHT22;3236;51.022;6.818;2023-02-26T11:18:04;3.80;99.90
6407;DHT22;3236;51.022;6.818;2023-02-26T11:20:38;3.90;99.90
6407;DHT22;3236;51.022;6.818;2023-02-26T11:23:11;4.70;99.90
6407;DHT22;3236;51.022;6.818;2023-02-26T11:25:39;3.90;99.90
6407;DHT22;3236;51.022;6.818;2023-02-26T11:28:17;3.60;99.90
6407;DHT22;3236;51.022;6.818;2023-02-26T11:30:46;3.60;99.90
6407;DHT22;3236;51.022;6.818;2023-02-26T11:33:22;3.90;99.90
6407;DHT22;3236;51.022;6.818;2023-02-26T11:35:49;4.00;99.90
6407;DHT22;3236;51.022;6.818;2023-02-26T11:38:21;4.10;99.90
6407;DHT22;3236;51.022;6.818;2023-02-26T11:40:54;4.00;99.90
6407;DHT22;3236;51.022;6.818;2023-02-26T11:43:24;4.80;99.90
6407;DHT22;3236;51.022;6.818;2023-02-26T11:45:57;4.80;99.90
6407;DHT22;3236;51.022;6.818;2023-02-26T11:48:28;5.80;99.90
6407;DHT22;3236;51.022;6.818;2023-02-26T11:50:59;6.30;98.80
6407;DHT22;3236;51.022;6.818;2023-02-26T11:53:30;6.30;98.10
6407;DHT22;3236;51.022;6.818;2023-02-26T11:56:01;7.00;94.40
6407;DHT22;3236;51.022;6.818;2023-02-26T11:58:34;7.30;92.70
6407;DHT22;3236;51.022;6.818;2023-02-26T12:01:02;7.00;91.20
6407;DHT22;3236;51.022;6.818;2023-02-26T12:03:36;6.80;90.40
6407;DHT22;3236;51.022;6.818;2023-02-26T12:06:06;7.10;87.50
6407;DHT22;3236;51.022;6.818;2023-02-26T12:08:36;7.00;87.20
6407;DHT22;3236;51.022;6.818;2023-02-26T12:11:15;6.70;89.80
6407;DHT22;3236;51.022;6.818;2023-02-26T12:13:58;6.60;86.80
6407;DHT22;3236;51.022;6.818;2023-02-26T12:16:30;6.90;85.90
6407;DHT22;3236;51.022;6.818;2023-02-26T12:19:05;6.60;84.50
6407;DHT22;3236;51.022;6.818;2023-02-26T12:21:51;6.60;85.00
6407;DHT22;3236;51.022;6.818;2023-02-26T12:24:38;6.90;85.70
6407;DHT22;3236;51.022;6.818;2023-02-26T12:27:17;6.90;83.80
6407;DHT22;3236;51.022;6.818;2023-02-26T12:30:05;6.30;86.40
6407;DHT22;3236;51.022;6.818;2023-02-26T12:33:02;6.50;86.60
6407;DHT22;3236;51.022;6.818;2023-02-26T12:35:58;7.60;84.50
6407;DHT22;3236;51.022;6.818;2023-02-26T12:38:39;7.40;83.70
6407;DHT22;3236;51.022;6.818;2023-02-26T12:41:33;7.60;80.10
6407;DHT22;3236;51.022;6.818;2023-02-26T12:44:17;8.20;76.10
6407;DHT22;3236;51.022;6.818;2023-02-26T12:47:02;8.50;76.00
6407;DHT22;3236;51.022;6.818;2023-02-26T12:55:50;10.00;74.20
6407;DHT22;3236;51.022;6.818;2023-02-26T12:58:38;10.10;74.20
6407;DHT22;3236;51.022;6.818;2023-02-26T13:01:39;10.10;67.50
6407;DHT22;3236;51.022;6.818;2023-02-26T13:04:23;10.60;67.60
6407;DHT22;3236;51.022;6.818;2023-02-26T13:07:04;10.60;67.00
6407;DHT22;3236;51.022;6.818;2023-02-26T13:09:45;10.20;65.30
6407;DHT22;3236;51.022;6.818;2023-02-26T13:12:29;9.70;64.40
6407;DHT22;3236;51.022;6.818;2023-02-26T13:15:04;9.30;66.30
6407;DHT22;3236;51.022;6.818;2023-02-26T13:17:39;9.00;67.90
6407;DHT22;3236;51.022;6.818;2023-02-26T13:20:12;10.00;68.50
6407;DHT22;3236;51.022;6.818;2023-02-26T13:22:46;10.00;67.70
6407;DHT22;3236;51.022;6.818;2023-02-26T13:27:50;9.80;70.80
6407;DHT22;3236;51.022;6.818;2023-02-26T13:30:24;9.90;64.00
6407;DHT22;3236;51.022;6.818;2023-02-26T13:32:55;8.90;64.70
6407;DHT22;3236;51.022;6.818;2023-02-26T13:35:27;8.70;62.80
6407;DHT22;3236;51.022;6.818;2023-02-26T13:37:57;9.40;66.50
6407;DHT22;3236;51.022;6.818;2023-02-26T13:40:54;9.50;65.80
6407;DHT22;3236;51.022;6.818;2023-02-26T13:46:29;10.00;66.00
6407;DHT22;3236;51.022;6.818;2023-02-26T13:51:34;9.40;60.30
6407;DHT22;3236;51.022;6.818;2023-02-26T13:54:27;9.50;63.20
6407;DHT22;3236;51.022;6.818;2023-02-26T13:57:06;9.30;64.20
6407;DHT22;3236;51.022;6.818;2023-02-26T13:59:48;10.30;62.80
6407;DHT22;3236;51.022;6.818;2023-02-26T14:24:44;8.70;63.10
6407;DHT22;3236;51.022;6.818;2023-02-26T14:27:31;8.90;62.90
6407;DHT22;3236;51.022;6.818;2023-02-26T14:33:06;9.30;62.90
6407;DHT22;3236;51.022;6.818;2023-02-26T14:35:46;8.90;61.80
6407;DHT22;3236;51.022;6.818;2023-02-26T14:57:11;8.60;64.90
6407;DHT22;3236;51.022;6.818;2023-02-26T15:00:04;8.60;62.30
6407;DHT22;3236;51.022;6.818;2023-02-26T15:02:50;8.60;62.80
6407;DHT22;3236;51.022;6.818;2023-02-26T15:05:42;8.50;62.90
6407;DHT22;3236;51.022;6.818;2023-02-26T15:08:46;8.10;63.20
6407;DHT22;3236;51.022;6.818;2023-02-26T15:11:31;9.30;62.20
6407;DHT22;3236;51.022;6.818;2023-02-26T15:14:25;8.70;62.30
6407;DHT22;3236;51.022;6.818;2023-02-26T15:17:03;8.90;62.00
6407;DHT22;3236;51.022;6.818;2023-02-26T15:19:59;9.80;62.20
6407;DHT22;3236;51.022;6.818;2023-02-26T15:22:42;10.30;61.70
6407;DHT22;3236;51.022;6.818;2023-02-26T15:25:18;9.50;60.30
6407;DHT22;3236;51.022;6.818;2023-02-26T15:32:54;10.80;60.70
6407;DHT22;3236;51.022;6.818;2023-02-26T15:35:22;10.80;59.60
6407;DHT22;3236;51.022;6.818;2023-02-26T15:37:53;10.80;60.70
6407;DHT22;3236;51.022;6.818;2023-02-26T15:40:21;11.10;59.40
6407;DHT22;3236;51.022;6.818;2023-02-26T15:42:52;11.60;58.50
6407;DHT22;3236;51.022;6.818;2023-02-26T15:45:25;11.00;58.00
6407;DHT22;3236;51.022;6.818;2023-02-26T15:47:55;10.40;59.20
6407;DHT22;3236;51.022;6.818;2023-02-26T15:50:26;9.10;60.10
6407;DHT22;3236;51.022;6.818;2023-02-26T15:53:00;7.80;62.10
6407;DHT22;3236;51.022;6.818;2023-02-26T15:55:30;6.90;65.40
6407;DHT22;3236;51.022;6.818;2023-02-26T16:01:26;5.50;67.10
6407;DHT22;3236;51.022;6.818;2023-02-26T16:06:30;6.10;71.50
6407;DHT22;3236;51.022;6.818;2023-02-26T16:11:36;4.60;71.60
6407;DHT22;3236;51.022;6.818;2023-02-26T16:14:05;4.50;71.40
6407;DHT22;3236;51.022;6.818;2023-02-26T16:16:39;4.30;71.30
6407;DHT22;3236;51.022;6.818;2023-02-26T16:19:15;4.30;71.60
6407;DHT22;3236;51.022;6.818;2023-02-26T16:24:15;4.10;71.70
6407;DHT22;3236;51.022;6.818;2023-02-26T16:26:48;4.10;72.90
6407;DHT22;3236;51.022;6.818;2023-02-26T16:29:32;4.00;73.50
6407;DHT22;3236;51.022;6.818;2023-02-26T16:32:02;3.90;75.00
6407;DHT22;3236;51.022;6.818;2023-02-26T16:34:36;3.80;75.60
6407;DHT22;3236;51.022;6.818;2023-02-26T16:37:18;3.90;77.90
6407;DHT22;3236;51.022;6.818;2023-02-26T16:39:53;3.90;77.70
6407;DHT22;3236;51.022;6.818;2023-02-26T16:44:53;3.50;79.40
6407;DHT22;3236;51.022;6.818;2023-02-26T16:47:23;3.30;80.00
6407;DHT22;3236;51.022;6.818;2023-02-26T16:54:57;3.50;81.40
6407;DHT22;3236;51.022;6.818;2023-02-26T16:57:33;3.10;80.90
6407;DHT22;3236;51.022;6.818;2023-02-26T17:00:05;3.00;81.50
6407;DHT22;3236;51.022;6.818;2023-02-26T17:02:35;3.20;82.70
6407;DHT22;3236;51.022;6.818;2023-02-26T17:05:13;3.10;81.40
6407;DHT22;3236;51.022;6.818;2023-02-26T17:07:47;3.00;83.10
6407;DHT22;3236;51.022;6.818;2023-02-26T17:10:22;3.00;82.20
6407;DHT22;3236;51.022;6.818;2023-02-26T17:12:51;3.00;82.60
6407;DHT22;3236;51.022;6.818;2023-02-26T17:15:25;2.90;83.60
6407;DHT22;3236;51.022;6.818;2023-02-26T17:17:53;2.90;85.30
6407;DHT22;3236;51.022;6.818;2023-02-26T17:20:22;3.40;86.20
6407;DHT22;3236;51.022;6.818;2023-02-26T17:25:22;2.70;85.90
6407;DHT22;3236;51.022;6.818;2023-02-26T17:27:50;3.20;89.20
6407;DHT22;3236;51.022;6.818;2023-02-26T17:30:19;2.50;87.50
6407;DHT22;3236;51.022;6.818;2023-02-26T17:32:49;2.70;88.70
6407;DHT22;3236;51.022;6.818;2023-02-26T17:35:17;2.70;88.80
6407;DHT22;3236;51.022;6.818;2023-02-26T17:37:45;2.50;87.30
6407;DHT22;3236;51.022;6.818;2023-02-26T17:40:17;2.70;88.70
6407;DHT22;3236;51.022;6.818;2023-02-26T17:42:46;2.50;87.90
6407;DHT22;3236;51.022;6.818;2023-02-26T17:45:14;2.40;90.00
6407;DHT22;3236;51.022;6.818;2023-02-26T17:47:41;2.30;89.90
6407;DHT22;3236;51.022;6.818;2023-02-26T17:50:24;2.30;90.40
6407;DHT22;3236;51.022;6.818;2023-02-26T17:52:53;2.20;90.70
6407;DHT22;3236;51.022;6.818;2023-02-26T17:55:21;2.30;91.20
6407;DHT22;3236;51.022;6.818;2023-02-26T17:57:49;2.20;90.60
6407;DHT22;3236;51.022;6.818;2023-02-26T18:00:17;1.90;91.20
6407;DHT22;3236;51.022;6.818;2023-02-26T18:07:41;2.30;93.50
6407;DHT22;3236;51.022;6.818;2023-02-26T18:10:16;2.30;94.00
6407;DHT22;3236;51.022;6.818;2023-02-26T18:12:43;1.80;94.50
6407;DHT22;3236;51.022;6.818;2023-02-26T18:17:39;2.00;96.00
6407;DHT22;3236;51.022;6.818;2023-02-26T18:20:15;2.10;96.60
6407;DHT22;3236;51.022;6.818;2023-02-26T18:22:42;2.10;97.50
6407;DHT22;3236;51.022;6.818;2023-02-26T18:25:12;2.20;98.40
6407;DHT22;3236;51.022;6.818;2023-02-26T18:27:40;1.70;99.20
6407;DHT22;3236;51.022;6.818;2023-02-26T18:30:22;2.00;98.90
6407;DHT22;3236;51.022;6.818;2023-02-26T18:32:49;2.20;99.90
6407;DHT22;3236;51.022;6.818;2023-02-26T18:35:19;2.20;99.90
6407;DHT22;3236;51.022;6.818;2023-02-26T18:40:17;1.90;99.90
6407;DHT22;3236;51.022;6.818;2023-02-26T18:45:15;2.10;99.90
6407;DHT22;3236;51.022;6.818;2023-02-26T18:47:43;1.90;99.90
6407;DHT22;3236;51.022;6.818;2023-02-26T18:50:12;1.80;99.90
6407;DHT22;3236;51.022;6.818;2023-02-26T18:57:36;1.30;99.90
6407;DHT22;3236;51.022;6.818;2023-02-26T19:00:10;1.60;99.90
6407;DHT22;3236;51.022;6.818;2023-02-26T19:02:41;1.50;99.90
6407;DHT22;3236;51.022;6.818;2023-02-26T19:05:09;1.50;99.90
6407;DHT22;3236;51.022;6.818;2023-02-26T19:07:37;1.20;99.90
6407;DHT22;3236;51.022;6.818;2023-02-26T19:10:06;1.10;99.90
6407;DHT22;3236;51.022;6.818;2023-02-26T19:15:03;1.10;99.90
6407;DHT22;3236;51.022;6.818;2023-02-26T19:17:30;0.50;99.90
6407;DHT22;3236;51.022;6.818;2023-02-26T19:19:59;0.60;99.90
6407;DHT22;3236;51.022;6.818;2023-02-26T19:22:27;0.60;99.90
6407;DHT22;3236;51.022;6.818;2023-02-26T19:24:54;0.60;99.90
6407;DHT22;3236;51.022;6.818;2023-02-26T19:29:48;0.50;99.90
6407;DHT22;3236;51.022;6.818;2023-02-26T19:32:16;0.40;99.90
6407;DHT22;3236;51.022;6.818;2023-02-26T19:39:39;0.90;99.90
6407;DHT22;3236;51.022;6.818;2023-02-26T19:47:01;0.50;99.90
6407;DHT22;3236;51.022;6.818;2023-02-26T19:49:29;0.60;99.90
6407;DHT22;3236;51.022;6.818;2023-02-26T19:54:26;0.60;99.90
6407;DHT22;3236;51.022;6.818;2023-02-26T19:56:53;0.80;99.90
6407;DHT22;3236;51.022;6.818;2023-02-26T20:01:47;0.70;99.90